Terminal Aerodrome Forecast
Issued by NWS

Home | Current Version | Previous Version | Text Only | Print | Product List | Glossary On
Versions: 1 2 3 4 5 6 7 8 9 10 11 12 13 14 15 16
717
FTUS43 KAPX 211123
TAFAPN
TAF
KAPN 211123Z 2112/2212 27004KT P6SM FEW050
     FM212000 35008KT P6SM SCT050
     FM212300 06006KT P6SM SCT120
     FM220100 09004KT P6SM BKN150=

USA.gov is the U.S. government's official web portal to all federal, state and local government web resources and services.